sensor_id;sensor_type;location;lat;lon;timestamp;P1;durP1;ratioP1;P2;durP2;ratioP2
23768;SDS011;12064;50.890;5.424;2023-03-21T00:08:37;2.28;;;1.88;;
23768;SDS011;12064;50.890;5.424;2023-03-21T00:17:28;2.42;;;1.50;;
23768;SDS011;12064;50.890;5.424;2023-03-21T00:26:21;2.00;;;1.60;;
23768;SDS011;12064;50.890;5.424;2023-03-21T00:35:12;2.23;;;1.70;;
23768;SDS011;12064;50.890;5.424;2023-03-21T00:44:02;2.65;;;1.70;;
23768;SDS011;12064;50.890;5.424;2023-03-21T00:52:53;1.75;;;1.50;;
23768;SDS011;12064;50.890;5.424;2023-03-21T01:01:44;1.65;;;1.55;;
23768;SDS011;12064;50.890;5.424;2023-03-21T01:10:37;2.65;;;1.80;;
23768;SDS011;12064;50.890;5.424;2023-03-21T01:19:29;2.30;;;1.80;;
23768;SDS011;12064;50.890;5.424;2023-03-21T01:28:20;2.03;;;1.60;;
23768;SDS011;12064;50.890;5.424;2023-03-21T01:37:12;3.00;;;1.70;;
23768;SDS011;12064;50.890;5.424;2023-03-21T01:46:46;1.73;;;1.35;;
23768;SDS011;12064;50.890;5.424;2023-03-21T01:55:20;1.50;;;1.40;;
23768;SDS011;12064;50.890;5.424;2023-03-21T02:04:11;1.52;;;1.42;;
23768;SDS011;12064;50.890;5.424;2023-03-21T02:13:02;1.52;;;1.33;;
23768;SDS011;12064;50.890;5.424;2023-03-21T02:40:14;2.05;;;1.70;;
23768;SDS011;12064;50.890;5.424;2023-03-21T02:49:23;2.72;;;1.45;;
23768;SDS011;12064;50.890;5.424;2023-03-21T02:58:23;1.55;;;1.38;;
23768;SDS011;12064;50.890;5.424;2023-03-21T03:34:57;3.05;;;1.60;;
23768;SDS011;12064;50.890;5.424;2023-03-21T03:43:49;2.28;;;1.65;;
23768;SDS011;12064;50.890;5.424;2023-03-21T03:52:49;1.60;;;1.50;;
23768;SDS011;12064;50.890;5.424;2023-03-21T04:01:44;1.88;;;1.40;;
23768;SDS011;12064;50.890;5.424;2023-03-21T04:10:35;1.98;;;1.40;;
23768;SDS011;12064;50.890;5.424;2023-03-21T04:19:26;3.10;;;1.40;;
23768;SDS011;12064;50.890;5.424;2023-03-21T04:28:16;2.50;;;1.43;;
23768;SDS011;12064;50.890;5.424;2023-03-21T04:37:07;1.43;;;1.33;;
23768;SDS011;12064;50.890;5.424;2023-03-21T04:46:01;1.95;;;1.60;;
23768;SDS011;12064;50.890;5.424;2023-03-21T04:54:51;1.65;;;1.52;;
23768;SDS011;12064;50.890;5.424;2023-03-21T05:03:42;1.88;;;1.30;;
23768;SDS011;12064;50.890;5.424;2023-03-21T05:12:33;3.03;;;1.40;;
23768;SDS011;12064;50.890;5.424;2023-03-21T05:21:24;1.38;;;1.27;;
23768;SDS011;12064;50.890;5.424;2023-03-21T05:30:18;3.15;;;1.50;;
23768;SDS011;12064;50.890;5.424;2023-03-21T05:39:09;2.65;;;1.60;;
23768;SDS011;12064;50.890;5.424;2023-03-21T05:48:00;2.40;;;1.65;;
23768;SDS011;12064;50.890;5.424;2023-03-21T05:56:51;2.47;;;1.20;;
23768;SDS011;12064;50.890;5.424;2023-03-21T06:05:41;3.50;;;1.50;;
23768;SDS011;12064;50.890;5.424;2023-03-21T06:14:32;3.35;;;1.73;;
23768;SDS011;12064;50.890;5.424;2023-03-21T06:23:23;3.58;;;1.92;;
23768;SDS011;12064;50.890;5.424;2023-03-21T06:32:14;3.88;;;1.63;;
23768;SDS011;12064;50.890;5.424;2023-03-21T06:41:05;6.75;;;2.00;;
23768;SDS011;12064;50.890;5.424;2023-03-21T06:49:56;8.77;;;2.60;;
23768;SDS011;12064;50.890;5.424;2023-03-21T06:58:47;6.77;;;2.63;;
23768;SDS011;12064;50.890;5.424;2023-03-21T07:07:39;4.85;;;2.30;;
23768;SDS011;12064;50.890;5.424;2023-03-21T07:16:30;7.82;;;2.40;;
23768;SDS011;12064;50.890;5.424;2023-03-21T07:25:21;4.10;;;2.20;;
23768;SDS011;12064;50.890;5.424;2023-03-21T07:34:11;4.47;;;2.22;;
23768;SDS011;12064;50.890;5.424;2023-03-21T07:43:04;3.97;;;2.00;;
23768;SDS011;12064;50.890;5.424;2023-03-21T07:51:55;4.50;;;2.17;;
23768;SDS011;12064;50.890;5.424;2023-03-21T08:00:46;6.65;;;2.22;;
23768;SDS011;12064;50.890;5.424;2023-03-21T08:09:37;3.97;;;2.15;;
23768;SDS011;12064;50.890;5.424;2023-03-21T08:18:28;4.15;;;1.85;;
23768;SDS011;12064;50.890;5.424;2023-03-21T08:27:19;4.07;;;1.65;;
23768;SDS011;12064;50.890;5.424;2023-03-21T08:36:09;2.93;;;1.83;;
23768;SDS011;12064;50.890;5.424;2023-03-21T08:45:00;4.43;;;1.80;;
23768;SDS011;12064;50.890;5.424;2023-03-21T08:53:51;3.88;;;2.13;;
23768;SDS011;12064;50.890;5.424;2023-03-21T09:02:42;5.00;;;2.10;;
23768;SDS011;12064;50.890;5.424;2023-03-21T09:11:35;4.15;;;2.15;;
23768;SDS011;12064;50.890;5.424;2023-03-21T09:20:26;4.27;;;1.90;;
23768;SDS011;12064;50.890;5.424;2023-03-21T09:29:21;2.80;;;1.90;;
23768;SDS011;12064;50.890;5.424;2023-03-21T09:38:12;3.80;;;2.00;;
23768;SDS011;12064;50.890;5.424;2023-03-21T09:56:11;3.75;;;1.80;;
23768;SDS011;12064;50.890;5.424;2023-03-21T10:05:09;2.45;;;1.98;;
23768;SDS011;12064;50.890;5.424;2023-03-21T10:14:10;3.38;;;1.88;;
23768;SDS011;12064;50.890;5.424;2023-03-21T10:23:07;2.67;;;1.80;;
23768;SDS011;12064;50.890;5.424;2023-03-21T10:32:01;3.13;;;1.58;;
23768;SDS011;12064;50.890;5.424;2023-03-21T10:40:52;2.50;;;1.80;;
23768;SDS011;12064;50.890;5.424;2023-03-21T10:49:43;2.95;;;1.70;;
23768;SDS011;12064;50.890;5.424;2023-03-21T10:58:45;2.35;;;1.77;;
23768;SDS011;12064;50.890;5.424;2023-03-21T11:07:38;2.38;;;1.67;;
23768;SDS011;12064;50.890;5.424;2023-03-21T11:16:31;1.85;;;1.40;;
23768;SDS011;12064;50.890;5.424;2023-03-21T11:25:35;1.70;;;1.40;;
23768;SDS011;12064;50.890;5.424;2023-03-21T11:34:47;2.20;;;1.40;;
23768;SDS011;12064;50.890;5.424;2023-03-21T11:43:40;2.08;;;1.60;;
23768;SDS011;12064;50.890;5.424;2023-03-21T11:52:40;2.85;;;1.50;;
23768;SDS011;12064;50.890;5.424;2023-03-21T12:11:01;2.17;;;1.52;;
23768;SDS011;12064;50.890;5.424;2023-03-21T12:20:15;2.28;;;1.65;;
23768;SDS011;12064;50.890;5.424;2023-03-21T12:39:02;1.88;;;1.40;;
23768;SDS011;12064;50.890;5.424;2023-03-21T12:48:14;2.17;;;1.50;;
23768;SDS011;12064;50.890;5.424;2023-03-21T13:06:15;2.08;;;1.40;;
23768;SDS011;12064;50.890;5.424;2023-03-21T13:15:21;2.28;;;1.30;;
23768;SDS011;12064;50.890;5.424;2023-03-21T13:24:23;1.58;;;1.30;;
23768;SDS011;12064;50.890;5.424;2023-03-21T13:33:16;1.60;;;1.20;;
23768;SDS011;12064;50.890;5.424;2023-03-21T13:42:23;1.63;;;1.30;;
23768;SDS011;12064;50.890;5.424;2023-03-21T13:52:23;1.95;;;1.40;;
23768;SDS011;12064;50.890;5.424;2023-03-21T14:01:01;1.45;;;1.30;;
23768;SDS011;12064;50.890;5.424;2023-03-21T14:10:16;1.42;;;1.30;;
23768;SDS011;12064;50.890;5.424;2023-03-21T14:19:11;1.40;;;1.10;;
23768;SDS011;12064;50.890;5.424;2023-03-21T14:28:03;1.63;;;1.52;;
23768;SDS011;12064;50.890;5.424;2023-03-21T14:37:00;1.30;;;1.20;;
23768;SDS011;12064;50.890;5.424;2023-03-21T14:45:54;1.70;;;1.33;;
23768;SDS011;12064;50.890;5.424;2023-03-21T14:54:46;1.27;;;1.15;;
23768;SDS011;12064;50.890;5.424;2023-03-21T15:03:38;1.55;;;1.30;;
23768;SDS011;12064;50.890;5.424;2023-03-21T15:12:29;1.70;;;1.40;;
23768;SDS011;12064;50.890;5.424;2023-03-21T15:21:31;1.60;;;1.20;;
23768;SDS011;12064;50.890;5.424;2023-03-21T15:30:30;1.50;;;1.40;;
23768;SDS011;12064;50.890;5.424;2023-03-21T15:39:23;1.50;;;1.10;;
23768;SDS011;12064;50.890;5.424;2023-03-21T15:48:16;1.90;;;1.10;;
23768;SDS011;12064;50.890;5.424;2023-03-21T15:57:27;1.38;;;1.13;;
23768;SDS011;12064;50.890;5.424;2023-03-21T16:06:25;1.70;;;1.17;;
23768;SDS011;12064;50.890;5.424;2023-03-21T16:15:19;1.00;;;0.90;;
23768;SDS011;12064;50.890;5.424;2023-03-21T16:24:11;1.35;;;1.25;;
23768;SDS011;12064;50.890;5.424;2023-03-21T16:33:02;1.38;;;1.10;;
23768;SDS011;12064;50.890;5.424;2023-03-21T16:41:53;1.40;;;1.20;;
23768;SDS011;12064;50.890;5.424;2023-03-21T16:50:45;1.40;;;1.20;;
23768;SDS011;12064;50.890;5.424;2023-03-21T16:59:37;1.30;;;1.20;;
23768;SDS011;12064;50.890;5.424;2023-03-21T17:08:29;1.65;;;1.23;;
23768;SDS011;12064;50.890;5.424;2023-03-21T17:17:20;1.20;;;1.10;;
23768;SDS011;12064;50.890;5.424;2023-03-21T17:26:11;1.80;;;1.23;;
23768;SDS011;12064;50.890;5.424;2023-03-21T17:35:03;1.30;;;1.10;;
23768;SDS011;12064;50.890;5.424;2023-03-21T17:43:55;1.60;;;1.23;;
23768;SDS011;12064;50.890;5.424;2023-03-21T17:52:46;1.75;;;1.38;;
23768;SDS011;12064;50.890;5.424;2023-03-21T18:01:37;1.60;;;1.33;;
23768;SDS011;12064;50.890;5.424;2023-03-21T18:10:28;1.55;;;1.23;;
23768;SDS011;12064;50.890;5.424;2023-03-21T18:19:19;2.07;;;1.57;;
23768;SDS011;12064;50.890;5.424;2023-03-21T18:28:09;2.47;;;1.75;;
23768;SDS011;12064;50.890;5.424;2023-03-21T18:37:00;2.58;;;1.77;;
23768;SDS011;12064;50.890;5.424;2023-03-21T18:45:51;1.83;;;1.58;;
23768;SDS011;12064;50.890;5.424;2023-03-21T18:54:42;1.95;;;1.63;;
23768;SDS011;12064;50.890;5.424;2023-03-21T19:03:32;1.80;;;1.70;;
23768;SDS011;12064;50.890;5.424;2023-03-21T19:12:24;2.08;;;1.60;;
23768;SDS011;12064;50.890;5.424;2023-03-21T19:21:15;1.40;;;1.30;;
23768;SDS011;12064;50.890;5.424;2023-03-21T19:30:08;1.50;;;1.35;;
23768;SDS011;12064;50.890;5.424;2023-03-21T19:39:00;1.92;;;1.73;;
23768;SDS011;12064;50.890;5.424;2023-03-21T19:47:50;2.28;;;1.38;;
23768;SDS011;12064;50.890;5.424;2023-03-21T19:56:41;1.80;;;1.40;;
23768;SDS011;12064;50.890;5.424;2023-03-21T20:05:33;1.67;;;1.48;;
23768;SDS011;12064;50.890;5.424;2023-03-21T20:14:24;1.50;;;1.30;;
23768;SDS011;12064;50.890;5.424;2023-03-21T20:23:15;2.08;;;1.65;;
23768;SDS011;12064;50.890;5.424;2023-03-21T20:32:06;1.67;;;1.58;;
23768;SDS011;12064;50.890;5.424;2023-03-21T20:40:57;2.15;;;1.50;;
23768;SDS011;12064;50.890;5.424;2023-03-21T20:49:49;1.88;;;1.58;;
23768;SDS011;12064;50.890;5.424;2023-03-21T20:58:39;1.70;;;1.60;;
23768;SDS011;12064;50.890;5.424;2023-03-21T21:07:30;1.98;;;1.48;;
23768;SDS011;12064;50.890;5.424;2023-03-21T21:16:21;2.75;;;1.80;;
23768;SDS011;12064;50.890;5.424;2023-03-21T21:25:12;2.10;;;1.60;;
23768;SDS011;12064;50.890;5.424;2023-03-21T21:34:03;1.65;;;1.55;;
23768;SDS011;12064;50.890;5.424;2023-03-21T21:42:54;1.63;;;1.50;;
23768;SDS011;12064;50.890;5.424;2023-03-21T21:51:46;2.10;;;1.60;;
23768;SDS011;12064;50.890;5.424;2023-03-21T22:00:37;3.40;;;1.57;;
23768;SDS011;12064;50.890;5.424;2023-03-21T22:09:28;1.52;;;1.42;;
23768;SDS011;12064;50.890;5.424;2023-03-21T22:18:19;1.85;;;1.60;;
23768;SDS011;12064;50.890;5.424;2023-03-21T22:27:10;1.58;;;1.42;;
23768;SDS011;12064;50.890;5.424;2023-03-21T22:36:00;2.60;;;1.50;;
23768;SDS011;12064;50.890;5.424;2023-03-21T22:44:51;2.63;;;1.48;;
23768;SDS011;12064;50.890;5.424;2023-03-21T22:53:42;2.17;;;1.50;;
23768;SDS011;12064;50.890;5.424;2023-03-21T23:02:32;2.07;;;1.53;;
23768;SDS011;12064;50.890;5.424;2023-03-21T23:11:23;2.20;;;1.20;;
23768;SDS011;12064;50.890;5.424;2023-03-21T23:20:14;1.63;;;1.33;;
23768;SDS011;12064;50.890;5.424;2023-03-21T23:29:05;1.50;;;1.40;;
23768;SDS011;12064;50.890;5.424;2023-03-21T23:37:58;1.50;;;1.33;;
23768;SDS011;12064;50.890;5.424;2023-03-21T23:46:49;2.53;;;1.50;;
23768;SDS011;12064;50.890;5.424;2023-03-21T23:55:39;1.70;;;1.60;;
